createdAt,value
2018-07-26T00:00:49.965Z,1011.49
2018-07-26T00:01:49.891Z,1011.49
2018-07-26T00:02:49.814Z,1011.50
2018-07-26T00:03:49.740Z,1011.49
2018-07-26T00:04:49.665Z,1011.46
2018-07-26T00:05:49.593Z,1011.45
2018-07-26T00:06:49.515Z,1011.45
2018-07-26T00:07:49.453Z,1011.45
2018-07-26T00:08:49.367Z,1011.44
2018-07-26T00:09:49.293Z,1011.44
2018-07-26T00:10:49.206Z,1011.44
2018-07-26T00:11:49.131Z,1011.42
2018-07-26T00:12:49.053Z,1011.39
2018-07-26T00:13:48.979Z,1011.44
2018-07-26T00:14:48.907Z,1011.42
2018-07-26T00:15:48.830Z,1011.42
2018-07-26T00:16:48.756Z,1011.42
2018-07-26T00:17:48.682Z,1011.41
2018-07-26T00:18:48.607Z,1011.37
2018-07-26T00:19:48.533Z,1011.39
2018-07-26T00:20:48.460Z,1011.40
2018-07-26T00:21:48.382Z,1011.38
2018-07-26T00:22:48.307Z,1011.41
2018-07-26T00:23:48.232Z,1011.42
2018-07-26T00:24:48.156Z,1011.39
2018-07-26T00:25:48.081Z,1011.36
2018-07-26T00:26:48.006Z,1011.39
2018-07-26T00:27:47.932Z,1011.38
2018-07-26T00:28:47.857Z,1011.39
2018-07-26T00:29:47.782Z,1011.39
2018-07-26T00:30:47.707Z,1011.36
2018-07-26T00:31:47.634Z,1011.41
2018-07-26T00:32:47.557Z,1011.37
2018-07-26T00:33:47.481Z,1011.38
2018-07-26T00:34:47.405Z,1011.39
2018-07-26T00:35:47.319Z,1011.43
2018-07-26T00:36:47.245Z,1011.42
2018-07-26T00:37:47.182Z,1011.42
2018-07-26T00:38:47.095Z,1011.40
2018-07-26T00:39:47.020Z,1011.39
2018-07-26T00:40:46.946Z,1011.35
2018-07-26T00:41:46.885Z,1011.35
2018-07-26T00:42:46.796Z,1011.33
2018-07-26T00:43:46.722Z,1011.33
2018-07-26T00:44:46.648Z,1011.37
2018-07-26T00:45:46.570Z,1011.32
2018-07-26T00:46:46.495Z,1011.35
2018-07-26T00:47:46.419Z,1011.33
2018-07-26T00:48:46.400Z,1011.32
2018-07-26T00:49:46.271Z,1011.33
2018-07-26T00:50:46.197Z,1011.28
2018-07-26T00:51:46.122Z,1011.31
2018-07-26T00:52:46.047Z,1011.30
2018-07-26T00:53:45.960Z,1011.30
2018-07-26T00:54:45.886Z,1011.30
2018-07-26T00:55:45.811Z,1011.28
2018-07-26T00:56:45.735Z,1011.31
2018-07-26T00:57:45.659Z,1011.32
2018-07-26T00:58:45.584Z,1011.33
2018-07-26T00:59:45.510Z,1011.35
2018-07-26T01:00:45.437Z,1011.34
2018-07-26T01:01:45.365Z,1011.34
2018-07-26T01:02:45.287Z,1011.31
2018-07-26T01:03:45.211Z,1011.35
2018-07-26T01:04:45.123Z,1011.34
2018-07-26T01:05:45.047Z,1011.32
2018-07-26T01:06:44.971Z,1011.27
2018-07-26T01:07:44.897Z,1011.33
2018-07-26T01:08:44.821Z,1011.30
2018-07-26T01:09:44.760Z,1011.29
2018-07-26T01:10:44.672Z,1011.31
2018-07-26T01:11:44.597Z,1011.30
2018-07-26T01:12:44.524Z,1011.33
2018-07-26T01:13:44.449Z,1011.32
2018-07-26T01:14:44.376Z,1011.36
2018-07-26T01:15:44.300Z,1011.36
2018-07-26T01:16:44.210Z,1011.33
2018-07-26T01:17:44.147Z,1011.39
2018-07-26T01:18:44.061Z,1011.43
2018-07-26T01:19:43.986Z,1011.41
2018-07-26T01:20:43.913Z,1011.37
2018-07-26T01:21:43.839Z,1011.38
2018-07-26T01:22:43.763Z,1011.35
2018-07-26T01:23:43.691Z,1011.39
2018-07-26T01:24:43.613Z,1011.42
2018-07-26T01:25:43.527Z,1011.40
2018-07-26T01:26:43.451Z,1011.37
2018-07-26T01:27:43.376Z,1011.37
2018-07-26T01:28:43.298Z,1011.37
2018-07-26T01:29:43.237Z,1011.42
2018-07-26T01:30:43.148Z,1011.40
2018-07-26T01:31:43.074Z,1011.39
2018-07-26T01:32:43.001Z,1011.39
2018-07-26T01:33:42.942Z,1011.40
2018-07-26T01:34:42.839Z,1011.35
2018-07-26T01:35:42.767Z,1011.39
2018-07-26T01:36:42.689Z,1011.36
2018-07-26T01:37:42.613Z,1011.35
2018-07-26T01:38:42.544Z,1011.35
2018-07-26T01:39:42.464Z,1011.34
2018-07-26T01:40:42.390Z,1011.39
2018-07-26T01:41:42.319Z,1011.40
2018-07-26T01:42:42.228Z,1011.41
2018-07-26T01:43:42.153Z,1011.42
2018-07-26T01:44:42.076Z,1011.39
2018-07-26T01:45:42.000Z,1011.47
2018-07-26T01:46:41.925Z,1011.44
2018-07-26T01:47:41.863Z,1011.43
2018-07-26T01:48:41.778Z,1011.44
2018-07-26T01:49:41.703Z,1011.47
2018-07-26T01:50:41.634Z,1011.48
2018-07-26T01:51:41.543Z,1011.45
2018-07-26T01:52:41.466Z,1011.45
2018-07-26T01:53:41.389Z,1011.48
2018-07-26T01:54:41.314Z,1011.50
2018-07-26T01:55:41.240Z,1011.48
2018-07-26T01:56:41.165Z,1011.49
2018-07-26T01:57:41.090Z,1011.50
2018-07-26T01:58:41.017Z,1011.49
2018-07-26T01:59:40.927Z,1011.46
2018-07-26T02:00:40.854Z,1011.46
2018-07-26T02:01:40.787Z,1011.44
2018-07-26T02:02:40.705Z,1011.44
2018-07-26T02:03:40.630Z,1011.43
2018-07-26T02:04:40.553Z,1011.44
2018-07-26T02:05:40.477Z,1011.40
2018-07-26T02:06:40.392Z,1011.42
2018-07-26T02:07:40.316Z,1011.44
2018-07-26T02:08:40.244Z,1011.43
2018-07-26T02:09:40.168Z,1011.42
2018-07-26T02:10:40.123Z,1011.44
2018-07-26T02:11:40.019Z,1011.43
2018-07-26T02:12:39.933Z,1011.46
2018-07-26T02:13:39.857Z,1011.44
2018-07-26T02:14:39.781Z,1011.47
2018-07-26T02:15:39.706Z,1011.49
2018-07-26T02:16:39.629Z,1011.45
2018-07-26T02:17:39.554Z,1011.46
2018-07-26T02:18:39.479Z,1011.44
2018-07-26T02:19:39.393Z,1011.47
2018-07-26T02:20:39.320Z,1011.44
2018-07-26T02:21:39.245Z,1011.44
2018-07-26T02:22:39.170Z,1011.43
2018-07-26T02:23:39.096Z,1011.44
2018-07-26T02:24:39.020Z,1011.40
2018-07-26T02:25:38.944Z,1011.40
2018-07-26T02:26:38.855Z,1011.39
2018-07-26T02:27:38.780Z,1011.38
2018-07-26T02:28:38.707Z,1011.37
2018-07-26T02:29:38.630Z,1011.39
2018-07-26T02:30:38.556Z,1011.41
2018-07-26T02:31:38.486Z,1011.41
2018-07-26T02:32:38.408Z,1011.44
2018-07-26T02:33:38.322Z,1011.42
2018-07-26T02:34:38.246Z,1011.45
2018-07-26T02:35:38.171Z,1011.42
2018-07-26T02:36:38.101Z,1011.43
2018-07-26T02:37:38.019Z,1011.47
2018-07-26T02:38:37.932Z,1011.51
2018-07-26T02:39:37.872Z,1011.48
2018-07-26T02:40:37.784Z,1011.48
2018-07-26T02:41:37.709Z,1011.51
2018-07-26T02:42:37.633Z,1011.52
2018-07-26T02:43:37.559Z,1011.54
2018-07-26T02:44:37.484Z,1011.52
2018-07-26T02:45:37.397Z,1011.57
2018-07-26T02:46:37.323Z,1011.57
2018-07-26T02:47:37.248Z,1011.57
2018-07-26T02:48:41.222Z,1011.62
2018-07-26T02:49:39.722Z,1011.62
2018-07-26T02:50:37.021Z,1011.62
2018-07-26T02:51:36.938Z,1011.60
2018-07-26T02:52:36.860Z,1011.59
2018-07-26T02:53:36.785Z,1011.62
2018-07-26T02:54:36.713Z,1011.59
2018-07-26T02:55:36.635Z,1011.58
2018-07-26T02:56:36.547Z,1011.59
2018-07-26T02:57:36.471Z,1011.56
2018-07-26T02:58:36.399Z,1011.56
2018-07-26T02:59:36.322Z,1011.55
2018-07-26T03:00:36.247Z,1011.55
2018-07-26T03:01:36.160Z,1011.51
2018-07-26T03:02:36.084Z,1011.51
2018-07-26T03:03:36.009Z,1011.52
2018-07-26T03:04:35.936Z,1011.53
2018-07-26T03:05:35.862Z,1011.52
2018-07-26T03:06:35.780Z,1011.53
2018-07-26T03:07:35.713Z,1011.58
2018-07-26T03:08:35.625Z,1011.54
2018-07-26T03:09:35.548Z,1011.55
2018-07-26T03:10:35.473Z,1011.52
2018-07-26T03:11:35.398Z,1011.53
2018-07-26T03:12:35.313Z,1011.58
2018-07-26T03:13:35.237Z,1011.60
2018-07-26T03:14:35.163Z,1011.60
2018-07-26T03:15:35.089Z,1011.61
2018-07-26T03:16:35.012Z,1011.62
2018-07-26T03:17:34.926Z,1011.63
2018-07-26T03:18:34.851Z,1011.63
2018-07-26T03:19:34.776Z,1011.60
2018-07-26T03:20:34.906Z,1011.62
2018-07-26T03:21:34.629Z,1011.62
2018-07-26T03:22:34.537Z,1011.64
2018-07-26T03:23:34.461Z,1011.64
2018-07-26T03:24:34.391Z,1011.59
2018-07-26T03:25:34.313Z,1011.55
2018-07-26T03:26:34.231Z,1011.57
2018-07-26T03:27:34.154Z,1011.54
2018-07-26T03:28:34.075Z,1011.57
2018-07-26T03:29:34.000Z,1011.54
2018-07-26T03:30:33.925Z,1011.55
2018-07-26T03:31:33.837Z,1011.59
2018-07-26T03:32:33.761Z,1011.61
2018-07-26T03:33:33.687Z,1011.61
2018-07-26T03:34:33.612Z,1011.60
2018-07-26T03:35:33.537Z,1011.59
2018-07-26T03:36:33.453Z,1011.58
2018-07-26T03:37:33.379Z,1011.55
2018-07-26T03:38:33.303Z,1011.55
2018-07-26T03:39:33.227Z,1011.54
2018-07-26T03:40:33.138Z,1011.54
2018-07-26T03:41:33.063Z,1011.53
2018-07-26T03:42:32.987Z,1011.51
2018-07-26T03:43:32.947Z,1011.52
2018-07-26T03:44:32.840Z,1011.54
2018-07-26T03:45:32.754Z,1011.57
2018-07-26T03:46:32.679Z,1011.54
2018-07-26T03:47:32.604Z,1011.59
2018-07-26T03:48:32.530Z,1011.59
2018-07-26T03:49:32.440Z,1011.59
2018-07-26T03:50:32.364Z,1011.54
2018-07-26T03:51:32.291Z,1011.55
2018-07-26T03:52:32.216Z,1011.57
2018-07-26T03:53:32.142Z,1011.52
2018-07-26T03:54:32.055Z,1011.56
2018-07-26T03:55:31.979Z,1011.53
2018-07-26T03:56:31.903Z,1011.58
2018-07-26T03:57:31.830Z,1011.57
2018-07-26T03:58:31.752Z,1011.62
2018-07-26T03:59:31.667Z,1011.63
2018-07-26T04:00:31.592Z,1011.66
2018-07-26T04:01:31.517Z,1011.67
2018-07-26T04:02:31.430Z,1011.67
2018-07-26T04:03:31.356Z,1011.70
2018-07-26T04:04:31.280Z,1011.68
2018-07-26T04:05:31.232Z,1011.67
2018-07-26T04:06:31.130Z,1011.71
2018-07-26T04:07:31.042Z,1011.75
2018-07-26T04:08:30.965Z,1011.73
2018-07-26T04:09:30.890Z,1011.72
2018-07-26T04:10:30.828Z,1011.70
2018-07-26T04:11:30.729Z,1011.71
2018-07-26T04:12:30.659Z,1011.70
2018-07-26T04:13:30.581Z,1011.74
2018-07-26T04:14:30.506Z,1011.73
2018-07-26T04:15:30.420Z,1011.68
2018-07-26T04:16:30.342Z,1011.74
2018-07-26T04:17:30.267Z,1011.71
2018-07-26T04:18:30.192Z,1011.76
2018-07-26T04:19:30.117Z,1011.73
2018-07-26T04:20:30.032Z,1011.76
2018-07-26T04:21:29.956Z,1011.76
2018-07-26T04:22:29.880Z,1011.78
2018-07-26T04:23:29.810Z,1011.77
2018-07-26T04:24:29.732Z,1011.76
2018-07-26T04:25:29.645Z,1011.78
2018-07-26T04:26:29.570Z,1011.81
2018-07-26T04:27:29.498Z,1011.78
2018-07-26T04:28:29.418Z,1011.80
2018-07-26T04:29:29.332Z,1011.83
2018-07-26T04:30:29.257Z,1011.84
2018-07-26T04:31:29.182Z,1011.80
2018-07-26T04:32:29.113Z,1011.81
2018-07-26T04:33:29.035Z,1011.81
2018-07-26T04:34:28.947Z,1011.80
2018-07-26T04:35:28.874Z,1011.80
2018-07-26T04:36:28.810Z,1011.82
2018-07-26T04:37:28.721Z,1011.82
2018-07-26T04:38:28.651Z,1011.80
2018-07-26T04:39:28.560Z,1011.86
2018-07-26T04:40:28.482Z,1011.85
2018-07-26T04:41:28.408Z,1011.87
2018-07-26T04:42:28.333Z,1011.88
2018-07-26T04:43:28.259Z,1011.90
2018-07-26T04:44:28.187Z,1011.91
2018-07-26T04:45:28.098Z,1011.94
2018-07-26T04:46:28.022Z,1011.97
2018-07-26T04:47:27.947Z,1011.96
2018-07-26T04:48:27.871Z,1011.97
2018-07-26T04:49:27.797Z,1011.96
2018-07-26T04:50:27.720Z,1011.99
2018-07-26T04:51:27.633Z,1012.03
2018-07-26T04:52:27.570Z,1012.04
2018-07-26T04:53:27.487Z,1012.03
2018-07-26T04:54:27.440Z,1011.98
2018-07-26T04:55:27.334Z,1011.99
2018-07-26T04:56:27.263Z,1012.00
2018-07-26T04:57:27.187Z,1011.96
2018-07-26T04:58:27.112Z,1011.96
2018-07-26T04:59:27.025Z,1012.02
2018-07-26T05:00:26.948Z,1012.01
2018-07-26T05:01:26.874Z,1012.05
2018-07-26T05:02:26.797Z,1012.02
2018-07-26T05:03:26.722Z,1012.05
2018-07-26T05:04:26.649Z,1012.06
2018-07-26T05:05:26.574Z,1012.05
2018-07-26T05:06:26.499Z,1012.07
2018-07-26T05:07:26.425Z,1012.10
2018-07-26T05:08:26.364Z,1012.10
2018-07-26T05:09:26.275Z,1012.08
2018-07-26T05:10:26.201Z,1012.09
2018-07-26T05:11:26.125Z,1012.10
2018-07-26T05:12:26.061Z,1012.10
2018-07-26T05:13:25.973Z,1012.10
2018-07-26T05:14:25.898Z,1012.11
2018-07-26T05:15:25.823Z,1012.11
2018-07-26T05:16:25.739Z,1012.10
2018-07-26T05:17:25.668Z,1012.09
2018-07-26T05:18:25.622Z,1012.09
2018-07-26T05:19:25.515Z,1012.13
2018-07-26T05:20:25.437Z,1012.11
2018-07-26T05:21:25.362Z,1012.13
2018-07-26T05:22:25.287Z,1012.13
2018-07-26T05:23:25.213Z,1012.11
2018-07-26T05:24:25.166Z,1012.17
2018-07-26T05:25:25.063Z,1012.18
2018-07-26T05:26:24.988Z,1012.18
2018-07-26T05:27:24.913Z,1012.14
2018-07-26T05:28:24.840Z,1012.14
2018-07-26T05:29:24.765Z,1012.17
2018-07-26T05:30:24.690Z,1012.19
2018-07-26T05:31:24.615Z,1012.17
2018-07-26T05:32:24.527Z,1012.16
2018-07-26T05:33:24.451Z,1012.18
2018-07-26T05:34:24.375Z,1012.16
2018-07-26T05:35:24.301Z,1012.09
2018-07-26T05:36:24.229Z,1012.11
2018-07-26T05:37:24.172Z,1012.10
2018-07-26T05:38:24.090Z,1012.09
2018-07-26T05:39:24.003Z,1012.11
2018-07-26T05:40:23.928Z,1012.07
2018-07-26T05:41:23.853Z,1012.09
2018-07-26T05:42:23.779Z,1012.10
2018-07-26T05:43:23.705Z,1012.06
2018-07-26T05:44:23.626Z,1012.09
2018-07-26T05:45:23.551Z,1012.10
2018-07-26T05:46:23.477Z,1012.12
2018-07-26T05:47:23.402Z,1012.10
2018-07-26T05:48:23.333Z,1012.11
2018-07-26T05:49:23.254Z,1012.12
2018-07-26T05:50:23.173Z,1012.14
2018-07-26T05:51:23.093Z,1012.16
2018-07-26T05:52:23.018Z,1012.19
2018-07-26T05:53:23.006Z,1012.19
2018-07-26T05:54:22.891Z,1012.17
2018-07-26T05:55:22.790Z,1012.17
2018-07-26T05:56:22.719Z,1012.17
2018-07-26T05:57:22.643Z,1012.19
2018-07-26T05:58:22.568Z,1012.17
2018-07-26T05:59:22.492Z,1012.22
2018-07-26T06:00:22.417Z,1012.20
2018-07-26T06:01:22.342Z,1012.19
2018-07-26T06:02:22.266Z,1012.19
2018-07-26T06:03:22.194Z,1012.24
2018-07-26T06:04:22.119Z,1012.24
2018-07-26T06:05:22.044Z,1012.27
2018-07-26T06:06:21.972Z,1012.26
2018-07-26T06:07:21.894Z,1012.25
2018-07-26T06:08:21.818Z,1012.29
2018-07-26T06:09:21.742Z,1012.25
2018-07-26T06:10:21.672Z,1012.23
2018-07-26T06:11:21.592Z,1012.25
2018-07-26T06:12:21.517Z,1012.26
2018-07-26T06:13:21.442Z,1012.22
2018-07-26T06:14:21.356Z,1012.26
2018-07-26T06:15:21.281Z,1012.24
2018-07-26T06:16:21.208Z,1012.28
2018-07-26T06:17:21.134Z,1012.25
2018-07-26T06:18:21.057Z,1012.30
2018-07-26T06:19:20.982Z,1012.27
2018-07-26T06:20:20.906Z,1012.29
2018-07-26T06:21:20.830Z,1012.27
2018-07-26T06:22:20.755Z,1012.31
2018-07-26T06:23:20.681Z,1012.26
2018-07-26T06:24:20.608Z,1012.29
2018-07-26T06:25:20.533Z,1012.31
2018-07-26T06:26:20.472Z,1012.32
2018-07-26T06:27:20.383Z,1012.36
2018-07-26T06:28:20.350Z,1012.38
2018-07-26T06:29:20.233Z,1012.35
2018-07-26T06:30:20.158Z,1012.39
2018-07-26T06:31:20.084Z,1012.37
2018-07-26T06:32:20.008Z,1012.39
2018-07-26T06:33:19.999Z,1012.36
2018-07-26T06:34:19.857Z,1012.35
2018-07-26T06:35:19.782Z,1012.39
2018-07-26T06:36:19.722Z,1012.36
2018-07-26T06:37:19.634Z,1012.37
2018-07-26T06:38:19.559Z,1012.37
2018-07-26T06:39:19.485Z,1012.37
2018-07-26T06:40:19.421Z,1012.36
2018-07-26T06:41:19.333Z,1012.37
2018-07-26T06:42:19.257Z,1012.37
2018-07-26T06:43:19.183Z,1012.33
2018-07-26T06:44:19.109Z,1012.33
2018-07-26T06:45:19.038Z,1012.35
2018-07-26T06:46:18.958Z,1012.38
2018-07-26T06:47:18.885Z,1012.36
2018-07-26T06:48:18.811Z,1012.40
2018-07-26T06:49:18.738Z,1012.39
2018-07-26T06:50:18.662Z,1012.41
2018-07-26T06:51:18.598Z,1012.42
2018-07-26T06:52:18.509Z,1012.43
2018-07-26T06:53:18.449Z,1012.42
2018-07-26T06:54:18.359Z,1012.42
2018-07-26T06:55:18.285Z,1012.42
2018-07-26T06:56:18.214Z,1012.45
2018-07-26T06:57:18.149Z,1012.41
2018-07-26T06:58:18.077Z,1012.45
2018-07-26T06:59:17.999Z,1012.41
2018-07-26T07:00:17.925Z,1012.45
2018-07-26T07:01:17.850Z,1012.48
2018-07-26T07:02:17.775Z,1012.47
2018-07-26T07:03:17.701Z,1012.47
2018-07-26T07:04:17.624Z,1012.51
2018-07-26T07:05:17.549Z,1012.51
2018-07-26T07:06:17.473Z,1012.52
2018-07-26T07:07:17.399Z,1012.53
2018-07-26T07:08:17.327Z,1012.53
2018-07-26T07:09:17.250Z,1012.57
2018-07-26T07:10:17.176Z,1012.54
2018-07-26T07:11:17.113Z,1012.53
2018-07-26T07:12:17.048Z,1012.56
2018-07-26T07:13:16.961Z,1012.51
2018-07-26T07:14:16.887Z,1012.55
2018-07-26T07:15:16.812Z,1012.57
2018-07-26T07:16:16.737Z,1012.59
2018-07-26T07:17:16.662Z,1012.64
2018-07-26T07:18:16.590Z,1012.63
2018-07-26T07:19:16.511Z,1012.65
2018-07-26T07:20:16.440Z,1012.63
2018-07-26T07:21:16.366Z,1012.67
2018-07-26T07:22:16.302Z,1012.68
2018-07-26T07:23:16.229Z,1012.67
2018-07-26T07:24:16.150Z,1012.67
2018-07-26T07:25:16.084Z,1012.69
2018-07-26T07:26:16.001Z,1012.71
2018-07-26T07:27:15.926Z,1012.71
2018-07-26T07:28:15.853Z,1012.71
2018-07-26T07:29:15.790Z,1012.72
2018-07-26T07:30:15.717Z,1012.77
2018-07-26T07:31:15.640Z,1012.79
2018-07-26T07:32:15.565Z,1012.82
2018-07-26T07:33:15.500Z,1012.77
2018-07-26T07:34:15.415Z,1012.78
2018-07-26T07:35:15.355Z,1012.81
2018-07-26T07:36:15.277Z,1012.81
2018-07-26T07:37:15.202Z,1012.81
2018-07-26T07:38:15.139Z,1012.79
2018-07-26T07:39:15.079Z,1012.76
2018-07-26T07:40:14.993Z,1012.76
2018-07-26T07:41:14.916Z,1012.82
2018-07-26T07:42:14.854Z,1012.84
2018-07-26T07:43:14.780Z,1012.86
2018-07-26T07:44:14.704Z,1012.84
2018-07-26T07:45:14.639Z,1012.89
2018-07-26T07:46:14.564Z,1012.88
2018-07-26T07:47:14.536Z,1012.85
2018-07-26T07:48:14.428Z,1012.90
2018-07-26T07:49:14.365Z,1012.90
2018-07-26T07:50:14.293Z,1012.86
2018-07-26T07:51:14.229Z,1012.87
2018-07-26T07:52:14.161Z,1012.85
2018-07-26T07:53:14.096Z,1012.86
2018-07-26T07:54:14.031Z,1012.90
2018-07-26T07:55:13.961Z,1012.88
2018-07-26T07:56:13.879Z,1012.90
2018-07-26T07:57:13.816Z,1012.89
2018-07-26T07:58:13.754Z,1012.89
2018-07-26T07:59:13.679Z,1012.95
2018-07-26T08:00:13.619Z,1012.94
2018-07-26T08:01:13.558Z,1012.93
2018-07-26T08:02:13.484Z,1012.97
2018-07-26T08:03:13.419Z,1012.98
2018-07-26T08:04:13.356Z,1012.99
2018-07-26T08:05:13.324Z,1013.03
2018-07-26T08:06:13.217Z,1013.00
2018-07-26T08:07:13.155Z,1013.03
2018-07-26T08:08:13.082Z,1013.03
2018-07-26T08:09:13.020Z,1013.05
2018-07-26T08:10:12.958Z,1013.08
2018-07-26T08:11:12.922Z,1013.03
2018-07-26T08:12:12.821Z,1013.06
2018-07-26T08:13:12.758Z,1013.05
2018-07-26T08:14:12.681Z,1013.05
2018-07-26T08:15:12.617Z,1013.04
2018-07-26T08:16:12.557Z,1013.07
2018-07-26T08:17:12.495Z,1013.05
2018-07-26T08:18:12.420Z,1013.02
2018-07-26T08:19:12.358Z,1013.06
2018-07-26T08:20:12.295Z,1013.09
2018-07-26T08:21:12.235Z,1013.10
2018-07-26T08:22:12.159Z,1013.07
2018-07-26T08:23:12.095Z,1013.09
2018-07-26T08:24:12.037Z,1013.09
2018-07-26T08:25:11.970Z,1013.10
2018-07-26T08:26:11.907Z,1013.15
2018-07-26T08:27:11.838Z,1013.15
2018-07-26T08:28:11.770Z,1013.15
2018-07-26T08:29:11.711Z,1013.12
2018-07-26T08:30:11.652Z,1013.10
2018-07-26T08:31:11.572Z,1013.12
2018-07-26T08:32:11.508Z,1013.12
2018-07-26T08:33:11.444Z,1013.16
2018-07-26T08:34:11.383Z,1013.17
2018-07-26T08:35:11.324Z,1013.12
2018-07-26T08:36:11.244Z,1013.16
2018-07-26T08:37:11.182Z,1013.17
2018-07-26T08:38:11.119Z,1013.17
2018-07-26T08:39:11.058Z,1013.20
2018-07-26T08:40:10.998Z,1013.20
2018-07-26T08:41:10.949Z,1013.18
2018-07-26T08:42:10.860Z,1013.25
2018-07-26T08:43:10.797Z,1013.26
2018-07-26T08:44:10.733Z,1013.25
2018-07-26T08:45:10.672Z,1013.25
2018-07-26T08:46:10.599Z,1013.22
2018-07-26T08:47:10.534Z,1013.27
2018-07-26T08:48:10.529Z,1013.26
2018-07-26T08:49:10.411Z,1013.25
2018-07-26T08:50:10.348Z,1013.28
2018-07-26T08:51:10.287Z,1013.26
2018-07-26T08:52:10.263Z,1013.26
2018-07-26T08:53:10.162Z,1013.26
2018-07-26T08:54:10.122Z,1013.25
2018-07-26T08:55:10.028Z,1013.25
2018-07-26T08:56:09.961Z,1013.22
2018-07-26T08:57:09.896Z,1013.26
2018-07-26T08:58:09.840Z,1013.25
2018-07-26T08:59:09.788Z,1013.28
2018-07-26T09:00:09.712Z,1013.27
2018-07-26T09:01:09.660Z,1013.32
2018-07-26T09:02:09.575Z,1013.35
2018-07-26T09:03:09.513Z,1013.33
2018-07-26T09:04:09.447Z,1013.34
2018-07-26T09:05:09.433Z,1013.31
2018-07-26T09:06:09.324Z,1013.37
2018-07-26T09:07:09.261Z,1013.39
2018-07-26T09:08:09.200Z,1013.37
2018-07-26T09:09:09.140Z,1013.35
2018-07-26T09:10:09.089Z,1013.43
2018-07-26T09:11:09.005Z,1013.37
2018-07-26T09:12:08.936Z,1013.37
2018-07-26T09:13:08.873Z,1013.35
2018-07-26T09:14:08.812Z,1013.40
2018-07-26T09:15:08.752Z,1013.35
2018-07-26T09:16:08.689Z,1013.41
2018-07-26T09:17:08.671Z,1013.41
2018-07-26T09:18:08.565Z,1013.38
2018-07-26T09:19:08.514Z,1013.44
2018-07-26T09:20:08.440Z,1013.48
2018-07-26T09:21:08.374Z,1013.48
2018-07-26T09:22:08.315Z,1013.47
2018-07-26T09:23:08.238Z,1013.49
2018-07-26T09:24:08.174Z,1013.49
2018-07-26T09:25:08.113Z,1013.55
2018-07-26T09:26:08.053Z,1013.52
2018-07-26T09:27:07.988Z,1013.51
2018-07-26T09:28:07.927Z,1013.51
2018-07-26T09:29:07.866Z,1013.51
2018-07-26T09:30:07.802Z,1013.50
2018-07-26T09:31:07.742Z,1013.49
2018-07-26T09:32:07.675Z,1013.56
2018-07-26T09:33:07.666Z,1013.57
2018-07-26T09:34:07.564Z,1013.53
2018-07-26T09:35:07.491Z,1013.55
2018-07-26T09:36:07.431Z,1013.54
2018-07-26T09:37:07.366Z,1013.55
2018-07-26T09:38:07.303Z,1013.57
2018-07-26T09:39:07.242Z,1013.55
2018-07-26T09:40:07.178Z,1013.58
2018-07-26T09:41:07.134Z,1013.61
2018-07-26T09:42:07.053Z,1013.54
2018-07-26T09:43:06.991Z,1013.41
2018-07-26T09:44:06.940Z,1013.19
2018-07-26T09:45:06.865Z,1013.13
2018-07-26T09:46:06.802Z,1013.08
2018-07-26T09:47:06.743Z,1013.11
2018-07-26T09:48:06.669Z,1013.12
2018-07-26T09:49:06.605Z,1013.15
2018-07-26T09:50:06.542Z,1013.17
2018-07-26T09:51:06.479Z,1013.14
2018-07-26T09:52:06.415Z,1013.07
2018-07-26T09:53:06.358Z,1013.09
2018-07-26T09:54:06.293Z,1013.07
2018-07-26T09:55:06.241Z,1013.10
2018-07-26T09:56:06.155Z,1013.10
2018-07-26T09:57:06.103Z,1013.07
2018-07-26T09:58:06.042Z,1013.09
2018-07-26T09:59:05.967Z,1013.11
2018-07-26T10:00:05.906Z,1013.10
2018-07-26T10:01:05.844Z,1013.08
2018-07-26T10:02:05.770Z,1013.10
2018-07-26T10:03:05.708Z,1013.01
2018-07-26T10:04:05.642Z,1013.02
2018-07-26T10:05:05.567Z,1013.00
2018-07-26T10:06:05.504Z,1013.04
2018-07-26T10:07:05.442Z,1013.14
2018-07-26T10:08:05.395Z,1013.16
2018-07-26T10:09:05.308Z,1013.12
2018-07-26T10:10:05.246Z,1013.02
2018-07-26T10:11:05.187Z,1013.03
2018-07-26T10:12:05.106Z,1012.98
2018-07-26T10:13:05.044Z,1012.96
2018-07-26T10:14:05.051Z,1012.93
2018-07-26T10:15:04.942Z,1012.91
2018-07-26T10:16:04.847Z,1012.93
2018-07-26T10:17:04.782Z,1012.90
2018-07-26T10:18:04.708Z,1012.91
2018-07-26T10:19:04.647Z,1012.91
2018-07-26T10:20:04.637Z,1012.87
2018-07-26T10:21:04.506Z,1012.88
2018-07-26T10:22:04.445Z,1012.88
2018-07-26T10:23:04.370Z,1012.88
2018-07-26T10:24:04.309Z,1012.90
2018-07-26T10:25:04.247Z,1012.84
2018-07-26T10:26:04.172Z,1012.86
2018-07-26T10:27:04.111Z,1012.86
2018-07-26T10:28:04.047Z,1012.82
2018-07-26T10:29:03.977Z,1012.79
2018-07-26T10:30:03.923Z,1012.79
2018-07-26T10:31:03.847Z,1012.79
2018-07-26T10:32:03.774Z,1012.75
2018-07-26T10:33:03.720Z,1012.75
2018-07-26T10:34:03.633Z,1012.78
2018-07-26T10:35:03.572Z,1012.77
2018-07-26T10:36:03.498Z,1012.75
2018-07-26T10:37:03.435Z,1012.73
2018-07-26T10:38:03.373Z,1012.70
2018-07-26T10:39:03.298Z,1012.71
2018-07-26T10:40:03.233Z,1012.74
2018-07-26T10:41:03.172Z,1012.76
2018-07-26T10:42:03.097Z,1012.75
2018-07-26T10:43:03.033Z,1012.75
2018-07-26T10:44:02.958Z,1012.75
2018-07-26T10:45:02.897Z,1012.73
2018-07-26T10:46:02.833Z,1012.76
2018-07-26T10:47:02.772Z,1012.80
2018-07-26T10:48:02.708Z,1012.82
2018-07-26T10:49:02.628Z,1013.01
2018-07-26T10:50:02.624Z,1013.05
2018-07-26T10:51:02.500Z,1013.04
2018-07-26T10:52:02.423Z,1013.12
2018-07-26T10:53:02.375Z,1013.06
2018-07-26T10:54:02.285Z,1013.07
2018-07-26T10:55:02.223Z,1013.06
2018-07-26T10:56:02.179Z,1012.91
2018-07-26T10:57:02.088Z,1012.89
2018-07-26T10:58:02.025Z,1012.81
2018-07-26T10:59:01.963Z,1012.75
2018-07-26T11:00:01.909Z,1012.72
2018-07-26T11:01:01.827Z,1012.74
2018-07-26T11:02:01.775Z,1012.88
2018-07-26T11:03:01.706Z,1012.93
2018-07-26T11:04:01.625Z,1012.92
2018-07-26T11:05:01.575Z,1012.90
2018-07-26T11:06:01.500Z,1012.88
2018-07-26T11:07:01.436Z,1012.86
2018-07-26T11:08:01.379Z,1012.86
2018-07-26T11:09:01.301Z,1012.83
2018-07-26T11:10:01.239Z,1012.83
2018-07-26T11:11:01.176Z,1012.83
2018-07-26T11:12:01.112Z,1012.84
2018-07-26T11:13:01.051Z,1012.82
2018-07-26T11:14:00.987Z,1012.79
2018-07-26T11:15:00.964Z,1012.84
2018-07-26T11:16:00.854Z,1012.84
2018-07-26T11:17:00.790Z,1012.89
2018-07-26T11:18:00.730Z,1012.82
2018-07-26T11:19:00.670Z,1012.81
2018-07-26T11:20:00.603Z,1012.81
2018-07-26T11:21:00.540Z,1012.80
2018-07-26T11:22:00.478Z,1012.77
2018-07-26T11:23:00.414Z,1012.77
2018-07-26T11:24:00.351Z,1012.79
2018-07-26T11:25:00.288Z,1012.76
2018-07-26T11:26:00.226Z,1012.73
2018-07-26T11:27:00.164Z,1012.70
2018-07-26T11:28:00.108Z,1012.74
2018-07-26T11:29:00.054Z,1012.72
2018-07-26T11:30:00.004Z,1012.74
2018-07-26T11:30:59.917Z,1012.78
2018-07-26T11:31:59.854Z,1012.74
2018-07-26T11:32:59.794Z,1012.75
2018-07-26T11:33:59.729Z,1012.74
2018-07-26T11:34:59.666Z,1012.76
2018-07-26T11:35:59.631Z,1012.70
2018-07-26T11:36:59.555Z,1012.66
2018-07-26T11:37:59.499Z,1012.66
2018-07-26T11:38:59.427Z,1012.65
2018-07-26T11:39:59.370Z,1012.66
2018-07-26T11:40:59.310Z,1012.64
2018-07-26T11:41:59.242Z,1012.57
2018-07-26T11:42:59.180Z,1012.54
2018-07-26T11:43:59.116Z,1012.56
2018-07-26T11:44:59.053Z,1012.60
2018-07-26T11:45:58.989Z,1012.57
2018-07-26T11:46:58.929Z,1012.58
2018-07-26T11:47:58.878Z,1012.55
2018-07-26T11:48:58.804Z,1012.58
2018-07-26T11:49:58.783Z,1012.49
2018-07-26T11:50:58.690Z,1012.49
2018-07-26T11:51:58.631Z,1012.51
2018-07-26T11:52:58.568Z,1012.54
2018-07-26T11:53:58.510Z,1012.56
2018-07-26T11:54:58.443Z,1012.50
2018-07-26T11:55:58.380Z,1012.47
2018-07-26T11:56:58.357Z,1012.46
2018-07-26T11:57:58.255Z,1012.48
2018-07-26T11:58:58.205Z,1012.44
2018-07-26T11:59:58.134Z,1012.50
2018-07-26T12:00:58.068Z,1012.46
2018-07-26T12:01:58.008Z,1012.46
2018-07-26T12:02:57.944Z,1012.41
2018-07-26T12:03:57.907Z,1012.43
2018-07-26T12:04:57.832Z,1012.38